Nearby METAR Reports

 

KMDQ - Huntsville/Madis, Alabama, USA
Distance from station: S 20mi, 32km
Updated: Fri, 17-Sep-2021 2:35pm CDT
Overcast
Overcast
 Wind from SSE
Wind: SSE 7 mph , 11 km/h
Temperature: 81°F , 27°C
Heat Index: 85°F , 29°C
Dew Point: 70°F , 21°C
Humidity: 70%
Barometer: 30.09 inHg , 1019 hPa
Clouds: Overcast
Visibility: 10 miles , 16 km
Cloud details: Mostly cloudy 2300 ft
Overcast 3000 ft
2021/09/17 19:35 KMDQ 171935Z AUTO 15006KT 10SM BKN023 OVC030 27/21 A3009 RMK A02 LTG DSNT SW AND NW T02680212
KTHA - Tullahoma, Tennessee, USA
Distance from station: NE 24mi, 39km
Updated: Fri, 17-Sep-2021 2:35pm CDT
Haze, Mostly cloudy
Haze, Mostly cloudy
 Wind from SE
Wind: SE 6 mph , 9 km/h
Temperature: 77°F , 25°C
Dew Point: 72°F , 22°C
Humidity: 83%
Barometer: 30.10 inHg , 1019.3 hPa
Summary: Haze
Clouds: Mostly cloudy
Visibility: 6 miles , 10 km
Cloud details: Few Clouds 1800 ft
Partly cloudy 4300 ft
Mostly cloudy 6000 ft
2021/09/17 19:35 KTHA 171935Z AUTO 13005KT 6SM HZ FEW018 SCT043 BKN060 25/22 A3010 RMK A01
 
KBGF - Winchester, Tennessee, USA
Distance from station: E 29mi, 46km
Updated: Fri, 17-Sep-2021 2:35pm CDT
Overcast
Overcast
 Wind from SE
Wind: SE 7 mph , 11 km/h
Temperature: 81°F , 27°C
Heat Index: 85°F , 29°C
Dew Point: 70°F , 21°C
Humidity: 70%
Barometer: 30.10 inHg , 1019.3 hPa
Clouds: Overcast
Visibility: 10 miles , 16 km
Cloud details: Few Clouds 2400 ft
Few Clouds 3300 ft
Overcast 7000 ft
2021/09/17 19:35 KBGF 171935Z AUTO 14006KT 10SM FEW024 FEW033 OVC070 27/21 A3010 RMK A01
KHUA - Redstone Arsenal, Alabama, USA
Distance from station: S 33mi, 53km
Updated: Fri, 17-Sep-2021 1:58pm CDT
NOT Current
Overcast
Overcast
 Wind from SSE
Wind: SSE 7 mph , 11 km/h
Temperature: 79°F , 26°C
Dew Point: 72°F , 22°C
Humidity: 79%
Barometer: 30.09 inHg , 1019 hPa
Clouds: Overcast
Visibility: 10 miles , 16 km
Cloud details: Overcast 2000 ft
2021/09/17 18:58 KHUA 171858Z AUTO 16006KT 10SM OVC020 26/22 A3009 RMK AO2 LTG DSNT W SLP184 T02600222
 
KHSV - Huntsville, Alabama, USA
Distance from station: SSW 37mi, 59km
Updated: Fri, 17-Sep-2021 1:53pm CDT
NOT Current
Mostly cloudy
Mostly cloudy
 Wind from ESE
Wind: ESE 10 mph , 17 km/h
Temperature: 82°F , 28°C
Heat Index: 86°F , 30°C
Dew Point: 72°F , 22°C
Humidity: 70%
Barometer: 30.09 inHg , 1019 hPa
Clouds: Mostly cloudy
Visibility: 10 miles , 16 km
Cloud details: Few Clouds 1800 ft
Mostly cloudy 3300 ft
Mostly cloudy 6500 ft
2021/09/17 18:53 KHSV 171853Z 12009KT 10SM FEW018 BKN033 BKN065 28/22 A3009 RMK AO2 SLP181 T02780222
KDCU - Decatur, Alabama, USA
Distance from station: SSW 41mi, 66km
Updated: Fri, 17-Sep-2021 1:53pm CDT
NOT Current
Mostly cloudy
Mostly cloudy
 Wind from SE
Wind: SE 10 mph , 17 km/h
Temperature: 82°F , 28°C
Heat Index: 86°F , 30°C
Dew Point: 72°F , 22°C
Humidity: 70%
Barometer: 30.08 inHg , 1018.6 hPa
Clouds: Mostly cloudy
Visibility: 10 miles , 16 km
Cloud details: Few Clouds 2100 ft
Partly cloudy 3700 ft
Mostly cloudy 6500 ft
2021/09/17 18:53 KDCU 171853Z AUTO 13009KT 10SM FEW021 SCT037 BKN065 28/22 A3008 RMK AO2 SLP179 T02780222
 
KMRC - Columbia, Tennessee, USA
Distance from station: NW 44mi, 71km
Updated: Fri, 17-Sep-2021 2:35pm CDT
Overcast
Overcast
 Wind from ESE
Wind: ESE 6 mph , 9 km/h
Temperature: 81°F , 27°C
Heat Index: 87°F , 31°C
Dew Point: 75°F , 24°C
Humidity: 84%
Barometer: 30.05 inHg , 1017.6 hPa
Clouds: Overcast
Visibility: 9 miles , 14 km
Cloud details: Few Clouds 2200 ft
Partly cloudy 3500 ft
Overcast 4100 ft
2021/09/17 19:35 KMRC 171935Z AUTO 12005KT 9SM FEW022 SCT035 OVC041 27/24 A3005 RMK A01
K4A6 - Scottsboro, Alabama, USA
Distance from station: SE 46mi, 74km
Updated: Fri, 17-Sep-2021 2:35pm CDT
Overcast
Overcast
 Wind from varies
Wind: varies 5 mph , 7 km/h
Temperature: 79°F , 26°C
Dew Point: 73°F , 23°C
Humidity: 84%
Barometer: 30.10 inHg , 1019.3 hPa
Clouds: Overcast
Visibility: 10 miles , 16 km
Cloud details: Few Clouds 2600 ft
Few Clouds 4600 ft
Overcast 6000 ft
2021/09/17 19:35 K4A6 171935Z AUTO VRB04KT 10SM FEW026 FEW046 OVC060 26/23 A3010 RMK AO2 LTG DSNT N AND NW
 
K9A4 - Courtland, Alabama, USA
Distance from station: SW 55mi, 89km
Updated: Thu, 22-Aug-2013 2:15pm CDT
NOT Current
Clear
Clear
 Wind from NNE
Wind: NNE 6 mph , 9 km/h
Temperature: 84°F , 29°C
Heat Index: 89°F , 32°C
Dew Point: 72°F , 22°C
Humidity: 66%
Barometer: 30.10 inHg , 1019.3 hPa
Clouds: Clear
Visibility: 10 miles , 16 km
2013/08/22 19:15 K9A4 221915Z AUTO 03005KT 10SM CLR 29/22 A3010 RMK AO2
KMQY - Smyrna, Tennessee, USA
Distance from station: N 60mi, 96km
Updated: Fri, 17-Sep-2021 2:17pm CDT
Light rain, Mist, Overcast
Light rain, Mist, Overcast
 Wind from calm
Wind: Calm
Temperature: 73°F , 23°C
Dew Point: 73°F , 23°C
Humidity: 100%
Barometer: 30.11 inHg , 1019.6 hPa
Summary: Light rain, Mist
Clouds: Overcast
Visibility: 2 miles , 3 km
Cloud details: Mostly cloudy 1400 ft
Overcast 3600 ft
2021/09/17 19:17 KMQY 171917Z 00000KT 2SM -RA BR BKN014 OVC036 23/23 A3011 RMK AO2 P0006
 
K3A1 - Cullman/Folsom F, Alabama, USA
Distance from station: SSW 63mi, 102km
Updated: Mon, 01-Jul-2013 4:35pm CDT
NOT Current
Partly cloudy
Partly cloudy
 Wind from WNW
Wind: WNW 7 mph , 11 km/h
Temperature: 82°F , 28°C
Heat Index: 83°F , 28°C
Dew Point: 63°F , 17°C
Humidity: 51%
Barometer: 29.87 inHg , 1011.5 hPa
Clouds: Partly cloudy
Visibility: 10 miles , 16 km
Cloud details: Partly cloudy 4600 ft
Partly cloudy 6000 ft
Partly cloudy 7000 ft
2013/07/01 21:35 K3A1 012135Z AUTO 30006KT 10SM SCT046 SCT060 SCT070 28/17 A2987 RMK AO2 T02780172
KMSL - Muscle Shoal, Alabama, USA
Distance from station: WSW 65mi, 104km
Updated: Fri, 17-Sep-2021 1:53pm CDT
NOT Current
Light rain, Overcast
Light rain, Overcast
 Wind from SSE
Wind: SSE 9 mph , 15 km/h
Temperature: 82°F , 28°C
Heat Index: 87°F , 31°C
Dew Point: 73°F , 23°C
Humidity: 74%
Barometer: 30.05 inHg , 1017.6 hPa
Summary: Light rain
Clouds: Overcast
Visibility: 10 miles , 16 km
Cloud details: Few Clouds 2300 ft
Mostly cloudy 3900 ft
Overcast 6000 ft
2021/09/17 18:53 KMSL 171853Z AUTO 15008KT 10SM -RA FEW023 BKN039 OVC060 28/23 A3005 RMK AO2 RAB48 SLP170 P0000 T02830228
 
K8A0 - Albertville Muni, Alabama, USA
Distance from station: SSE 66mi, 106km
Updated: Fri, 17-Sep-2021 2:30pm CDT
Mostly cloudy
Mostly cloudy
 Wind from S
Wind: S 3 mph , 6 km/h
Temperature: 77°F , 25°C
Dew Point: 70°F , 21°C
Humidity: 79%
Barometer: 30.10 inHg , 1019.3 hPa
Clouds: Mostly cloudy
Visibility: 10 miles , 16 km
Cloud details: Partly cloudy 1700 ft
Partly cloudy 2500 ft
Mostly cloudy 3000 ft
2021/09/17 19:30 K8A0 171930Z AUTO 17003KT 10SM SCT017 SCT025 BKN030 25/21 A3010 RMK AO2
KBNA - Nashville, Tennessee, USA
Distance from station: N 67mi, 108km
Updated: Fri, 17-Sep-2021 1:53pm CDT
NOT Current
Light rain, Mist, Overcast
Light rain, Mist, Overcast
 Wind from SSE
Wind: SSE 5 mph , 7 km/h
Temperature: 75°F , 24°C
Dew Point: 70°F , 21°C
Humidity: 83%
Barometer: 30.12 inHg , 1020 hPa
Summary: Light rain, Mist
Clouds: Overcast
Visibility: 2 miles , 3 km
Cloud details: Mostly cloudy 600 ft
Mostly cloudy 1700 ft
Overcast 3300 ft
2021/09/17 18:53 KBNA 171853Z 15004KT 2SM R02L/5500VP6000FT -RA BR BKN006 BKN017 OVC033 24/21 A3012 RMK AO2 RAB1756 SLP193 P0023 T02390211 $
 
K4A9 - Ft Payne/Isbell, Alabama, USA
Distance from station: SE 68mi, 109km
Updated: Fri, 17-Sep-2021 2:35pm CDT
Overcast
Overcast
 Wind from SE
Wind: SE 6 mph , 9 km/h
Temperature: 79°F , 26°C
Dew Point: 70°F , 21°C
Humidity: 74%
Barometer: 30.10 inHg , 1019.3 hPa
Clouds: Overcast
Visibility: 10 miles , 16 km
Cloud details: Mostly cloudy 3000 ft
Overcast 3500 ft
2021/09/17 19:35 K4A9 171935Z AUTO 13005KT 10SM BKN030 OVC035 26/21 A3010 RMK AO2 T02560206